createdAt,value
2022-08-26T00:00:51.332Z,100581.37
2022-08-26T00:02:07.770Z,100583.52
2022-08-26T00:03:24.652Z,100584.09
2022-08-26T00:04:41.014Z,100586.99
2022-08-26T00:05:57.505Z,100587.63
2022-08-26T00:07:15.843Z,100588.77
2022-08-26T00:08:32.236Z,100586.57
2022-08-26T00:09:48.888Z,100584.00
2022-08-26T00:11:08.466Z,100586.34
2022-08-26T00:12:27.858Z,100586.99
2022-08-26T00:13:47.785Z,100583.84
2022-08-26T00:15:07.879Z,100584.90
2022-08-26T00:16:24.711Z,100586.67
2022-08-26T00:17:41.087Z,100581.20
2022-08-26T00:18:59.421Z,100587.70
2022-08-26T00:20:16.756Z,100581.79
2022-08-26T00:21:33.181Z,100582.48
2022-08-26T00:22:50.812Z,100584.00
2022-08-26T00:24:07.293Z,100585.61
2022-08-26T00:25:23.664Z,100585.70
2022-08-26T00:26:40.103Z,100578.95
2022-08-26T00:27:57.855Z,100580.88
2022-08-26T00:29:14.859Z,100580.88
2022-08-26T00:30:31.318Z,100579.98
2022-08-26T00:31:48.177Z,100583.45
2022-08-26T00:33:04.689Z,100581.84
2022-08-26T00:34:23.749Z,100579.59
2022-08-26T00:35:45.253Z,100584.25
2022-08-26T00:37:01.738Z,100584.16
2022-08-26T00:38:18.109Z,100585.12
2022-08-26T00:39:34.521Z,100586.83
2022-08-26T00:40:51.002Z,100583.94
2022-08-26T00:42:07.811Z,100585.55
2022-08-26T00:43:24.221Z,100586.57
2022-08-26T00:44:40.671Z,100583.68
2022-08-26T00:45:58.436Z,100584.48
2022-08-26T00:47:15.094Z,100585.16
2022-08-26T00:48:33.834Z,100587.80
2022-08-26T00:49:53.354Z,100586.84
2022-08-26T00:51:10.726Z,100588.19
2022-08-26T00:52:27.115Z,100582.39
2022-08-26T00:53:43.487Z,100586.89
2022-08-26T00:55:00.178Z,100583.04
2022-08-26T00:56:18.537Z,100579.54
2022-08-26T00:57:34.931Z,100579.50
2022-08-26T00:58:53.258Z,100580.78
2022-08-26T01:00:11.609Z,100580.41
2022-08-26T01:01:30.728Z,100579.17
2022-08-26T01:02:47.535Z,100578.47
2022-08-26T01:04:03.911Z,100579.44
2022-08-26T01:05:20.300Z,100581.15
2022-08-26T01:06:36.763Z,100581.53
2022-08-26T01:07:53.461Z,100583.30
2022-08-26T01:09:09.836Z,100584.90
2022-08-26T01:10:26.223Z,100581.11
2022-08-26T01:11:42.631Z,100582.17
2022-08-26T01:12:59.746Z,100584.16
2022-08-26T01:14:16.425Z,100578.95
2022-08-26T01:15:35.466Z,100575.89
2022-08-26T01:16:51.877Z,100579.11
2022-08-26T01:18:08.799Z,100581.36
2022-08-26T01:19:25.179Z,100578.85
2022-08-26T01:20:41.858Z,100577.19
2022-08-26T01:21:58.240Z,100578.30
2022-08-26T01:23:14.899Z,100577.89
2022-08-26T01:24:31.969Z,100576.38
2022-08-26T01:25:48.360Z,100577.02
2022-08-26T01:27:05.952Z,100576.96
2022-08-26T01:28:23.702Z,100581.05
2022-08-26T01:29:40.121Z,100579.02
2022-08-26T01:30:56.553Z,100578.69
2022-08-26T01:32:12.923Z,100580.94
2022-08-26T01:33:29.602Z,100579.91
2022-08-26T01:34:50.853Z,100577.02
2022-08-26T01:36:08.175Z,100580.13
2022-08-26T01:37:25.053Z,100579.91
2022-08-26T01:38:41.436Z,100579.43
2022-08-26T01:39:58.206Z,100575.36
2022-08-26T01:41:19.912Z,100576.86
2022-08-26T01:42:40.398Z,100580.78
2022-08-26T01:43:56.946Z,100584.00
2022-08-26T01:45:14.336Z,100589.89
2022-08-26T01:46:31.009Z,100601.38
2022-08-26T01:47:47.390Z,100608.23
2022-08-26T01:49:04.720Z,100607.65
2022-08-26T01:50:27.904Z,100610.48
2022-08-26T01:51:46.149Z,100607.91
2022-08-26T01:53:03.912Z,100614.02
2022-08-26T01:54:20.552Z,100612.25
2022-08-26T01:55:39.327Z,100601.16
2022-08-26T01:56:56.383Z,100600.51
2022-08-26T01:58:13.475Z,100607.27
2022-08-26T01:59:30.155Z,100602.83
2022-08-26T02:00:46.629Z,100601.42
2022-08-26T02:02:02.985Z,100598.96
2022-08-26T02:03:19.366Z,100602.12
2022-08-26T02:04:35.860Z,100594.34
2022-08-26T02:05:52.487Z,100597.61
2022-08-26T02:07:09.220Z,100598.00
2022-08-26T02:08:25.640Z,100598.04
2022-08-26T02:09:42.328Z,100599.55
2022-08-26T02:10:58.701Z,100602.44
2022-08-26T02:12:15.372Z,100606.52
2022-08-26T02:13:31.841Z,100604.05
2022-08-26T02:14:48.231Z,100601.53
2022-08-26T02:16:08.411Z,100603.57
2022-08-26T02:17:24.922Z,100604.31
2022-08-26T02:18:43.586Z,100605.02
2022-08-26T02:19:59.972Z,100607.69
2022-08-26T02:21:18.303Z,100607.97
2022-08-26T02:22:35.780Z,100607.27
2022-08-26T02:23:52.224Z,100606.14
2022-08-26T02:25:08.966Z,100605.12
2022-08-26T02:26:25.337Z,100605.98
2022-08-26T02:27:43.517Z,100607.21
2022-08-26T02:28:59.971Z,100608.23
2022-08-26T02:30:17.134Z,100610.65
2022-08-26T02:31:33.984Z,100610.81
2022-08-26T02:32:51.379Z,100608.17
2022-08-26T02:34:07.791Z,100602.12
2022-08-26T02:35:27.122Z,100606.95
2022-08-26T02:36:43.490Z,100609.05
2022-08-26T02:38:00.162Z,100612.52
2022-08-26T02:39:22.071Z,100613.54
2022-08-26T02:40:38.752Z,100613.80
2022-08-26T02:41:55.158Z,100613.16
2022-08-26T02:43:11.514Z,100607.27
2022-08-26T02:44:30.235Z,100610.66
2022-08-26T02:45:46.615Z,100610.97
2022-08-26T02:47:04.488Z,100608.66
2022-08-26T02:48:21.697Z,100614.61
2022-08-26T02:49:38.247Z,100614.45
2022-08-26T02:50:54.966Z,100617.24
2022-08-26T02:52:11.329Z,100611.62
2022-08-26T02:53:27.719Z,100613.16
2022-08-26T02:54:46.151Z,100611.72
2022-08-26T02:56:07.879Z,100611.78
2022-08-26T02:57:24.992Z,100613.70
2022-08-26T02:58:41.379Z,100612.27
2022-08-26T02:59:57.751Z,100606.67
2022-08-26T03:01:18.529Z,100610.01
2022-08-26T03:02:34.926Z,100610.66
2022-08-26T03:03:51.653Z,100606.56
2022-08-26T03:05:09.004Z,100610.66
2022-08-26T03:06:25.394Z,100606.24
2022-08-26T03:07:41.875Z,100607.22
2022-08-26T03:08:58.266Z,100608.98
2022-08-26T03:10:14.935Z,100608.66
2022-08-26T03:11:33.170Z,100606.15
2022-08-26T03:12:49.797Z,100602.94
2022-08-26T03:14:08.527Z,100604.54
2022-08-26T03:15:24.953Z,100605.87
2022-08-26T03:16:41.338Z,100604.64
2022-08-26T03:17:58.109Z,100604.38
2022-08-26T03:19:17.563Z,100601.74
2022-08-26T03:20:34.111Z,100604.22
2022-08-26T03:21:51.280Z,100610.66
2022-08-26T03:23:09.063Z,100606.89
2022-08-26T03:24:25.553Z,100608.23
2022-08-26T03:25:43.901Z,100607.38
2022-08-26T03:27:00.292Z,100611.88
2022-08-26T03:28:21.563Z,100614.07
2022-08-26T03:29:39.984Z,100611.30
2022-08-26T03:30:56.388Z,100609.73
2022-08-26T03:32:15.045Z,100609.41
2022-08-26T03:33:31.725Z,100614.99
2022-08-26T03:34:48.415Z,100615.25
2022-08-26T03:36:06.756Z,100612.36
2022-08-26T03:37:23.148Z,100610.75
2022-08-26T03:38:41.587Z,100613.49
2022-08-26T03:40:00.000Z,100618.70
2022-08-26T03:41:18.520Z,100613.17
2022-08-26T03:42:34.910Z,100615.84
2022-08-26T03:43:53.251Z,100617.25
2022-08-26T03:45:11.596Z,100616.33
2022-08-26T03:46:28.349Z,100618.89
2022-08-26T03:47:46.682Z,100622.50
2022-08-26T03:49:05.784Z,100625.56
2022-08-26T03:50:24.382Z,100624.69
2022-08-26T03:51:40.825Z,100622.92
2022-08-26T03:52:58.844Z,100622.34
2022-08-26T03:54:18.284Z,100623.79
2022-08-26T03:55:36.636Z,100627.17
2022-08-26T03:56:53.816Z,100624.27
2022-08-26T03:58:10.257Z,100618.74
2022-08-26T03:59:27.759Z,100629.67
2022-08-26T04:00:44.157Z,100633.12
2022-08-26T04:02:11.311Z,100634.83
2022-08-26T04:03:28.036Z,100632.89
2022-08-26T04:04:46.359Z,100629.52
2022-08-26T04:06:03.249Z,100635.78
2022-08-26T04:07:22.240Z,100631.98
2022-08-26T04:08:41.222Z,100635.14
2022-08-26T04:09:57.594Z,100635.14
2022-08-26T04:11:15.932Z,100636.98
2022-08-26T04:12:32.743Z,100639.12
2022-08-26T04:13:51.113Z,100636.11
2022-08-26T04:15:09.455Z,100639.16
2022-08-26T04:16:25.879Z,100638.69
2022-08-26T04:17:44.154Z,100635.78
2022-08-26T04:19:03.163Z,100637.30
2022-08-26T04:20:21.516Z,100635.80
2022-08-26T04:21:37.987Z,100641.00
2022-08-26T04:22:54.917Z,100638.75
2022-08-26T04:24:12.227Z,100635.21
2022-08-26T04:25:30.930Z,100636.91
2022-08-26T04:26:49.271Z,100635.05
2022-08-26T04:28:07.620Z,100635.63
2022-08-26T04:29:26.027Z,100636.66
2022-08-26T04:30:44.343Z,100634.83
2022-08-26T04:32:01.951Z,100630.97
2022-08-26T04:33:32.281Z,100633.87
2022-08-26T04:34:43.045Z,100635.31
2022-08-26T04:36:00.404Z,100636.48
2022-08-26T04:37:18.809Z,100632.88
2022-08-26T04:38:36.434Z,100638.36
2022-08-26T04:39:54.901Z,100636.52
2022-08-26T04:41:15.473Z,100636.75
2022-08-26T04:42:35.284Z,100633.41
2022-08-26T04:43:53.603Z,100635.51
2022-08-26T04:45:12.708Z,100638.34
2022-08-26T04:46:31.156Z,100637.97
2022-08-26T04:47:47.727Z,100638.72
2022-08-26T04:49:06.108Z,100639.56
2022-08-26T04:50:23.430Z,100643.05
2022-08-26T04:51:42.151Z,100643.80
2022-08-26T04:53:02.363Z,100645.77
2022-08-26T04:54:21.439Z,100650.89
2022-08-26T04:55:42.866Z,100651.12
2022-08-26T04:57:03.052Z,100650.41
2022-08-26T04:58:20.653Z,100653.61
2022-08-26T04:59:39.445Z,100659.98
2022-08-26T05:00:58.503Z,100657.67
2022-08-26T05:02:14.999Z,100656.43
2022-08-26T05:03:32.351Z,100662.75
2022-08-26T05:04:51.967Z,100660.53
2022-08-26T05:06:10.277Z,100660.48
2022-08-26T05:07:27.710Z,100657.84
2022-08-26T05:08:45.019Z,100663.83
2022-08-26T05:10:02.553Z,100663.84
2022-08-26T05:11:22.041Z,100663.55
2022-08-26T05:12:41.588Z,100663.02
2022-08-26T05:14:03.720Z,100663.69
2022-08-26T05:15:20.251Z,100659.83
2022-08-26T05:16:40.413Z,100665.14
2022-08-26T05:17:57.864Z,100663.67
2022-08-26T05:19:21.073Z,100667.37
2022-08-26T05:20:40.125Z,100663.13
2022-08-26T05:21:58.409Z,100660.34
2022-08-26T05:23:19.620Z,100659.70
2022-08-26T05:26:29.692Z,100661.48
2022-08-26T05:27:48.093Z,100667.59
2022-08-26T05:29:07.823Z,100664.53
2022-08-26T05:30:26.791Z,100666.08
2022-08-26T05:31:44.339Z,100665.98
2022-08-26T05:33:02.104Z,100669.20
2022-08-26T05:34:20.536Z,100674.66
2022-08-26T05:35:39.856Z,100677.71
2022-08-26T05:36:58.207Z,100682.69
2022-08-26T05:38:17.604Z,100679.74
2022-08-26T05:39:36.909Z,100682.98
2022-08-26T05:40:56.266Z,100684.41
2022-08-26T05:42:13.609Z,100693.52
2022-08-26T05:43:32.950Z,100692.02
2022-08-26T05:44:50.280Z,100694.48
2022-08-26T05:46:14.005Z,100693.46
2022-08-26T05:47:32.873Z,100696.19
2022-08-26T05:48:50.195Z,100699.08
2022-08-26T05:50:10.172Z,100700.05
2022-08-26T05:51:30.927Z,100702.27
2022-08-26T05:52:50.415Z,100703.48
2022-08-26T05:54:10.858Z,100704.19
2022-08-26T05:55:30.608Z,100703.71
2022-08-26T05:56:50.217Z,100706.70
2022-08-26T05:58:08.678Z,100708.38
2022-08-26T05:59:27.665Z,100704.61
2022-08-26T06:00:48.968Z,100707.56
2022-08-26T06:02:08.099Z,100707.66
2022-08-26T06:03:27.591Z,100709.21
2022-08-26T06:04:46.465Z,100714.09
2022-08-26T06:06:05.421Z,100714.58
2022-08-26T06:07:25.563Z,100711.45
2022-08-26T06:08:45.294Z,100715.00
2022-08-26T06:10:28.603Z,100718.47
2022-08-26T06:11:27.797Z,100713.88
2022-08-26T06:12:46.636Z,100713.65
2022-08-26T06:14:04.467Z,100714.83
2022-08-26T06:15:23.630Z,100716.54
2022-08-26T06:16:44.798Z,100715.94
2022-08-26T06:18:02.209Z,100716.26
2022-08-26T06:19:19.575Z,100717.38
2022-08-26T06:20:37.578Z,100715.70
2022-08-26T06:21:58.183Z,100717.12
2022-08-26T06:23:18.242Z,100714.75
2022-08-26T06:24:34.829Z,100716.03
2022-08-26T06:25:55.133Z,100718.50
2022-08-26T06:27:15.164Z,100718.12
2022-08-26T06:28:36.094Z,100717.96
2022-08-26T06:29:54.370Z,100719.09
2022-08-26T06:31:15.160Z,100722.78
2022-08-26T06:32:41.216Z,100727.28
2022-08-26T06:34:00.186Z,100726.64
2022-08-26T06:35:18.027Z,100727.44
2022-08-26T06:36:35.950Z,100725.52
2022-08-26T06:37:57.237Z,100729.43
2022-08-26T06:39:16.399Z,100732.33
2022-08-26T06:40:35.834Z,100729.66
2022-08-26T06:41:53.769Z,100727.66
2022-08-26T06:43:14.639Z,100732.16
2022-08-26T06:44:35.000Z,100734.70
2022-08-26T06:47:49.460Z,100730.81
2022-08-26T06:49:09.182Z,100723.52
2022-08-26T06:50:29.369Z,100733.55
2022-08-26T06:51:48.180Z,100731.69
2022-08-26T06:53:07.451Z,100731.45
2022-08-26T06:54:24.893Z,100732.87
2022-08-26T06:55:42.430Z,100734.99
2022-08-26T06:56:59.793Z,100733.39
2022-08-26T06:58:19.802Z,100740.74
2022-08-26T06:59:38.632Z,100742.55
2022-08-26T07:01:11.305Z,100743.09
2022-08-26T07:02:25.517Z,100743.31
2022-08-26T07:03:47.564Z,100747.66
2022-08-26T07:05:07.433Z,100744.80
2022-08-26T07:06:25.106Z,100744.31
2022-08-26T07:07:42.765Z,100747.05
2022-08-26T07:09:01.776Z,100744.12
2022-08-26T07:10:20.649Z,100746.30
2022-08-26T07:11:39.617Z,100745.08
2022-08-26T07:12:58.418Z,100742.31
2022-08-26T07:14:17.538Z,100742.64
2022-08-26T07:15:43.870Z,100742.86
2022-08-26T07:17:02.865Z,100744.75
2022-08-26T07:18:21.841Z,100742.79
2022-08-26T07:19:42.132Z,100747.67
2022-08-26T07:21:04.191Z,100750.89
2022-08-26T07:22:23.568Z,100748.77
2022-08-26T07:23:42.933Z,100753.06
2022-08-26T07:25:02.043Z,100755.77
2022-08-26T07:26:22.725Z,100754.47
2022-08-26T07:27:44.304Z,100753.09
2022-08-26T07:29:01.626Z,100751.86
2022-08-26T07:30:20.590Z,100755.20
2022-08-26T07:31:42.831Z,100754.40
2022-08-26T07:33:01.890Z,100759.06
2022-08-26T07:34:20.776Z,100757.67
2022-08-26T07:35:38.153Z,100760.95
2022-08-26T07:36:58.820Z,100762.11
2022-08-26T07:38:20.689Z,100765.55
2022-08-26T07:42:49.641Z,100765.06
2022-08-26T07:44:10.761Z,100768.34
2022-08-26T07:45:31.760Z,100763.57
2022-08-26T07:46:52.414Z,100763.22
2022-08-26T07:48:13.573Z,100766.48
2022-08-26T07:49:42.409Z,100771.31
2022-08-26T07:51:05.858Z,100767.39
2022-08-26T07:52:27.346Z,100770.61
2022-08-26T07:53:48.560Z,100770.77
2022-08-26T07:55:13.334Z,100774.38
2022-08-26T07:56:32.701Z,100774.41
2022-08-26T07:57:58.758Z,100770.94
2022-08-26T07:59:21.187Z,100781.22
2022-08-26T08:00:42.998Z,100775.92
2022-08-26T08:02:01.574Z,100779.55
2022-08-26T08:05:10.048Z,100779.49
2022-08-26T08:06:28.267Z,100781.42
2022-08-26T08:07:47.853Z,100779.49
2022-08-26T08:09:11.221Z,100780.42
2022-08-26T08:10:38.496Z,100781.87
2022-08-26T08:11:56.993Z,100778.55
2022-08-26T08:13:15.827Z,100776.30
2022-08-26T08:14:35.532Z,100777.65
2022-08-26T08:15:52.939Z,100778.84
2022-08-26T08:18:30.666Z,100775.88
2022-08-26T08:19:50.304Z,100779.16
2022-08-26T08:21:21.602Z,100779.09
2022-08-26T08:22:32.896Z,100777.77
2022-08-26T08:23:50.237Z,100777.93
2022-08-26T08:25:10.498Z,100783.40
2022-08-26T08:26:29.539Z,100783.56
2022-08-26T08:27:48.405Z,100783.94
2022-08-26T08:29:06.934Z,100784.58
2022-08-26T08:30:24.648Z,100787.86
2022-08-26T08:32:00.005Z,100789.47
2022-08-26T08:33:07.504Z,100789.63
2022-08-26T08:34:25.902Z,100786.25
2022-08-26T08:35:45.290Z,100785.61
2022-08-26T08:37:06.169Z,100786.31
2022-08-26T08:38:27.604Z,100785.84
2022-08-26T08:39:46.984Z,100783.42
2022-08-26T08:41:09.500Z,100786.25
2022-08-26T08:42:32.515Z,100788.62
2022-08-26T08:43:51.617Z,100788.80
2022-08-26T08:45:10.976Z,100784.97
2022-08-26T08:46:29.398Z,100780.42
2022-08-26T08:47:47.791Z,100782.62
2022-08-26T08:49:07.382Z,100781.27
2022-08-26T08:50:25.720Z,100778.98
2022-08-26T08:51:43.029Z,100781.48
2022-08-26T08:53:03.520Z,100778.98
2022-08-26T08:54:29.280Z,100777.21
2022-08-26T08:57:39.331Z,100775.64
2022-08-26T08:58:58.192Z,100775.41
2022-08-26T09:00:18.022Z,100775.53
2022-08-26T09:01:47.780Z,100776.66
2022-08-26T09:03:09.729Z,100778.55
2022-08-26T09:04:27.343Z,100779.68
2022-08-26T09:05:48.740Z,100778.72
2022-08-26T09:07:08.725Z,100771.80
2022-08-26T09:08:31.167Z,100777.33
2022-08-26T09:09:53.563Z,100778.13
2022-08-26T09:11:13.134Z,100779.74
2022-08-26T09:12:34.504Z,100777.16
2022-08-26T09:13:57.770Z,100783.05
2022-08-26T09:15:17.988Z,100784.23
2022-08-26T09:16:35.484Z,100780.48
2022-08-26T09:17:56.683Z,100786.66
2022-08-26T09:19:18.877Z,100783.34
2022-08-26T09:20:39.274Z,100782.95
2022-08-26T09:22:04.668Z,100786.66
2022-08-26T09:23:25.469Z,100786.04
2022-08-26T09:24:48.534Z,100790.41
2022-08-26T09:26:12.469Z,100791.22
2022-08-26T09:27:31.435Z,100790.58
2022-08-26T09:28:49.085Z,100796.95
2022-08-26T09:30:11.648Z,100796.20
2022-08-26T09:31:33.498Z,100795.47
2022-08-26T09:32:56.015Z,100795.88
2022-08-26T09:34:17.419Z,100795.24
2022-08-26T09:35:35.211Z,100792.51
2022-08-26T09:36:54.194Z,100794.38
2022-08-26T09:38:15.494Z,100796.69
2022-08-26T09:39:37.821Z,100798.14
2022-08-26T09:40:59.178Z,100795.95
2022-08-26T09:42:19.553Z,100797.23
2022-08-26T09:43:41.613Z,100798.04
2022-08-26T09:45:02.179Z,100798.84
2022-08-26T09:46:26.418Z,100794.66
2022-08-26T09:47:47.251Z,100794.82
2022-08-26T09:49:08.160Z,100789.19
2022-08-26T09:50:28.912Z,100790.06
2022-08-26T09:51:50.183Z,100792.73
2022-08-26T09:53:09.705Z,100791.44
2022-08-26T09:54:30.383Z,100792.09
2022-08-26T09:55:53.576Z,100791.24
2022-08-26T09:57:12.970Z,100791.19
2022-08-26T09:58:30.224Z,100788.34
2022-08-26T09:59:50.632Z,100783.36
2022-08-26T10:01:09.577Z,100787.55
2022-08-26T10:02:29.292Z,100789.21
2022-08-26T10:03:47.304Z,100788.02
2022-08-26T10:05:09.077Z,100786.31
2022-08-26T10:06:26.892Z,100786.95
2022-08-26T10:07:45.925Z,100785.53
2022-08-26T10:09:08.752Z,100781.88
2022-08-26T10:10:30.713Z,100779.14
2022-08-26T10:11:48.920Z,100774.38
2022-08-26T10:14:58.164Z,100774.41
2022-08-26T10:16:18.007Z,100773.66
2022-08-26T10:17:38.339Z,100775.23
2022-08-26T10:18:59.966Z,100774.38
2022-08-26T10:20:23.466Z,100771.80
2022-08-26T10:21:54.945Z,100773.47
2022-08-26T10:23:17.870Z,100779.48
2022-08-26T10:24:36.264Z,100770.83
2022-08-26T10:27:52.702Z,100773.25
2022-08-26T10:29:09.889Z,100773.09
2022-08-26T10:30:28.120Z,100770.47
2022-08-26T10:31:46.172Z,100771.02
2022-08-26T10:33:05.427Z,100766.12
2022-08-26T10:34:25.655Z,100764.26
2022-08-26T10:35:50.511Z,100767.05
2022-08-26T10:37:16.170Z,100763.41
2022-08-26T10:38:44.297Z,100772.42
2022-08-26T10:40:07.134Z,100765.56
2022-08-26T10:41:33.399Z,100757.25
2022-08-26T10:42:54.934Z,100766.42
2022-08-26T10:44:16.011Z,100768.52
2022-08-26T10:45:36.834Z,100761.92
2022-08-26T10:46:55.618Z,100762.45
2022-08-26T10:48:18.027Z,100762.69
2022-08-26T10:49:37.771Z,100763.58
2022-08-26T10:50:56.609Z,100759.69
2022-08-26T10:52:17.558Z,100765.09
2022-08-26T10:53:34.939Z,100757.27
2022-08-26T10:54:55.199Z,100757.01
2022-08-26T10:56:15.756Z,100758.84
2022-08-26T10:57:35.491Z,100755.95
2022-08-26T10:58:55.030Z,100759.22
2022-08-26T11:00:13.810Z,100754.11
2022-08-26T11:01:34.395Z,100759.26
2022-08-26T11:02:56.574Z,100760.87
2022-08-26T11:04:15.541Z,100763.28
2022-08-26T11:05:34.295Z,100760.55
2022-08-26T11:06:56.935Z,100761.35
2022-08-26T11:08:17.645Z,100768.17
2022-08-26T11:09:39.468Z,100762.44
2022-08-26T11:10:58.849Z,100769.20
2022-08-26T11:12:16.952Z,100767.33
2022-08-26T11:15:27.008Z,100769.08
2022-08-26T11:16:48.134Z,100768.11
2022-08-26T11:18:04.661Z,100771.55
2022-08-26T11:19:21.298Z,100771.12
2022-08-26T11:20:43.531Z,100775.25
2022-08-26T11:22:03.095Z,100773.32
2022-08-26T11:23:25.513Z,100776.76
2022-08-26T11:24:44.047Z,100772.89
2022-08-26T11:26:01.483Z,100773.70
2022-08-26T11:27:18.587Z,100775.47
2022-08-26T11:28:38.439Z,100773.06
2022-08-26T11:29:57.346Z,100782.12
2022-08-26T11:31:15.189Z,100774.02
2022-08-26T11:32:34.067Z,100777.62
2022-08-26T11:33:52.237Z,100777.94
2022-08-26T11:35:12.606Z,100776.75
2022-08-26T11:36:29.289Z,100771.67
2022-08-26T11:37:49.584Z,100774.34
2022-08-26T11:39:08.709Z,100770.70
2022-08-26T11:40:29.510Z,100768.55
2022-08-26T11:41:46.104Z,100767.09
2022-08-26T11:43:04.031Z,100764.65
2022-08-26T11:44:26.235Z,100767.39
2022-08-26T11:45:44.919Z,100762.17
2022-08-26T11:47:04.199Z,100764.16
2022-08-26T11:48:21.755Z,100759.98
2022-08-26T11:49:42.853Z,100767.86
2022-08-26T11:51:00.816Z,100764.48
2022-08-26T11:52:25.800Z,100759.02
2022-08-26T11:53:44.765Z,100760.40
2022-08-26T11:55:04.711Z,100761.59
2022-08-26T11:56:24.701Z,100753.38
2022-08-26T11:57:44.487Z,100755.31
2022-08-26T11:59:04.408Z,100760.08
2022-08-26T12:00:24.211Z,100757.24
2022-08-26T12:01:40.712Z,100753.00
2022-08-26T12:02:59.833Z,100753.38
2022-08-26T12:04:18.370Z,100756.12
2022-08-26T12:05:36.767Z,100755.44
2022-08-26T12:06:57.653Z,100750.12
2022-08-26T12:08:14.125Z,100752.09
2022-08-26T12:09:32.455Z,100752.31
2022-08-26T12:10:50.857Z,100749.84
2022-08-26T12:12:08.750Z,100749.80
2022-08-26T12:13:33.730Z,100747.27
2022-08-26T12:14:52.862Z,100745.88
2022-08-26T12:16:11.562Z,100749.80
2022-08-26T12:17:29.044Z,100745.45
2022-08-26T12:18:46.821Z,100745.55
2022-08-26T12:20:05.239Z,100742.02
2022-08-26T12:21:21.978Z,100741.27
2022-08-26T12:22:40.700Z,100741.75
2022-08-26T12:24:02.899Z,100740.69
2022-08-26T12:25:21.861Z,100742.62
2022-08-26T12:26:41.432Z,100739.18
2022-08-26T12:27:59.899Z,100743.10
2022-08-26T12:29:26.643Z,100737.57
2022-08-26T12:30:41.430Z,100738.27
2022-08-26T12:31:58.819Z,100740.53
2022-08-26T12:33:22.099Z,100740.69
2022-08-26T12:34:39.444Z,100739.17
2022-08-26T12:35:57.717Z,100743.36
2022-08-26T12:37:18.905Z,100738.91
2022-08-26T12:38:40.719Z,100741.39
2022-08-26T12:39:58.120Z,100733.92
2022-08-26T12:41:19.648Z,100730.71
2022-08-26T12:42:38.394Z,100731.09
2022-08-26T12:43:54.894Z,100730.61
2022-08-26T12:45:13.292Z,100728.30
2022-08-26T12:46:29.892Z,100725.24
2022-08-26T12:47:48.075Z,100732.22
2022-08-26T12:49:04.561Z,100732.22
2022-08-26T12:50:22.943Z,100733.59
2022-08-26T12:51:41.435Z,100729.68
2022-08-26T12:52:59.815Z,100729.10
2022-08-26T12:54:18.558Z,100733.77
2022-08-26T12:55:36.956Z,100732.16
2022-08-26T12:56:53.644Z,100729.90
2022-08-26T12:58:12.028Z,100734.24
2022-08-26T12:59:29.440Z,100729.96
2022-08-26T13:00:48.278Z,100732.31
2022-08-26T13:02:05.083Z,100730.70
2022-08-26T13:03:22.481Z,100728.67
2022-08-26T13:04:42.053Z,100725.40
2022-08-26T13:06:00.450Z,100719.12
2022-08-26T13:07:19.622Z,100719.34
2022-08-26T13:08:38.687Z,100715.00
2022-08-26T13:09:56.523Z,100710.81
2022-08-26T13:11:14.874Z,100709.84
2022-08-26T13:12:32.734Z,100711.36
2022-08-26T13:13:51.395Z,100710.75
2022-08-26T13:15:10.014Z,100707.75
2022-08-26T13:16:27.608Z,100709.36
2022-08-26T13:17:45.987Z,100711.62
2022-08-26T13:19:02.571Z,100707.11
2022-08-26T13:20:21.237Z,100709.75
2022-08-26T13:21:38.581Z,100711.12
2022-08-26T13:22:59.039Z,100714.67
2022-08-26T13:24:16.630Z,100708.08
2022-08-26T13:25:35.045Z,100704.59
2022-08-26T13:26:51.880Z,100703.24
2022-08-26T13:28:10.771Z,100699.87
2022-08-26T13:29:27.203Z,100704.69
2022-08-26T13:30:47.021Z,100702.67
2022-08-26T13:32:06.142Z,100696.01
2022-08-26T13:33:24.548Z,100702.12
2022-08-26T13:34:40.984Z,100700.25
2022-08-26T13:35:59.338Z,100704.69
2022-08-26T13:37:20.306Z,100698.91
2022-08-26T13:38:39.217Z,100699.22
2022-08-26T13:39:56.625Z,100700.03
2022-08-26T13:41:14.976Z,100700.83
2022-08-26T13:42:34.858Z,100693.59
2022-08-26T13:43:51.332Z,100691.88
2022-08-26T13:45:09.030Z,100695.11
2022-08-26T13:46:27.555Z,100691.77
2022-08-26T13:47:44.143Z,100693.11
2022-08-26T13:49:01.591Z,100691.02
2022-08-26T13:50:19.042Z,100692.09
2022-08-26T13:51:38.333Z,100694.72
2022-08-26T13:52:54.863Z,100700.03
2022-08-26T13:54:13.201Z,100697.62
2022-08-26T13:55:31.714Z,100703.25
2022-08-26T13:56:49.074Z,100704.38
2022-08-26T13:58:06.493Z,100706.15
2022-08-26T13:59:23.895Z,100705.28
2022-08-26T14:00:42.341Z,100704.64
2022-08-26T14:02:00.707Z,100702.64
2022-08-26T14:03:19.168Z,100700.03
2022-08-26T14:04:35.857Z,100699.98
2022-08-26T14:05:54.228Z,100700.55
2022-08-26T14:07:11.539Z,100702.00
2022-08-26T14:08:29.940Z,100714.39
2022-08-26T14:09:48.280Z,100707.16
2022-08-26T14:11:07.030Z,100712.79
2022-08-26T14:12:25.359Z,100713.43
2022-08-26T14:13:43.781Z,100713.44
2022-08-26T14:15:02.120Z,100713.50
2022-08-26T14:16:20.495Z,100710.31
2022-08-26T14:17:39.651Z,100705.07
2022-08-26T14:18:58.054Z,100710.31
2022-08-26T14:20:16.399Z,100714.17
2022-08-26T14:21:34.725Z,100712.47
2022-08-26T14:24:16.357Z,100718.30
2022-08-26T14:25:36.576Z,100719.53
2022-08-26T14:26:54.437Z,100721.48
2022-08-26T14:28:12.878Z,100719.27
2022-08-26T14:29:31.258Z,100717.59
2022-08-26T14:30:49.969Z,100716.86
2022-08-26T14:32:08.340Z,100713.58
2022-08-26T14:33:26.882Z,100712.03
2022-08-26T14:34:44.237Z,100708.17
2022-08-26T14:36:02.612Z,100707.41
2022-08-26T14:37:21.289Z,100709.24
2022-08-26T14:38:39.675Z,100710.58
2022-08-26T14:39:57.074Z,100711.65
2022-08-26T14:41:15.403Z,100715.19
2022-08-26T14:42:33.765Z,100716.41
2022-08-26T14:43:52.424Z,100712.07
2022-08-26T14:45:10.796Z,100711.69
2022-08-26T14:46:29.350Z,100717.55
2022-08-26T14:47:48.637Z,100710.78
2022-08-26T14:49:09.842Z,100708.63
2022-08-26T14:50:29.254Z,100704.84
2022-08-26T14:51:47.684Z,100705.73
2022-08-26T14:53:06.059Z,100701.82
2022-08-26T14:54:24.464Z,100703.65
2022-08-26T14:55:41.180Z,100703.17
2022-08-26T14:56:58.397Z,100703.01
2022-08-26T14:58:16.784Z,100703.33
2022-08-26T14:59:35.180Z,100703.11
2022-08-26T15:00:54.116Z,100691.69
2022-08-26T15:02:32.313Z,100695.61
2022-08-26T15:03:35.760Z,100694.27
2022-08-26T15:04:53.064Z,100694.10
2022-08-26T15:06:11.587Z,100696.52
2022-08-26T15:07:30.264Z,100698.12
2022-08-26T15:08:47.606Z,100698.02
2022-08-26T15:10:06.047Z,100697.38
2022-08-26T15:11:25.486Z,100695.55
2022-08-26T15:12:43.847Z,100692.98
2022-08-26T15:14:02.509Z,100694.14
2022-08-26T15:15:20.820Z,100696.88
2022-08-26T15:16:39.230Z,100699.09
2022-08-26T15:17:57.584Z,100701.41
2022-08-26T15:19:14.110Z,100705.62